Time;durP1;ratioP1;P1;durP2;ratioP2;P2;SDS_P1;SDS_P2;PMS_P1;PMS_P2;Temp;Humidity;BMP_temperature;BMP_pressure;BME280_temperature;BME280_humidity;BME280_pressure;Samples;Min_cycle;Max_cycle;Signal;HPM_P1;HPM_P2
2021/06/11 00:01:34;;;;;;;0.52;0.30;;;22.80;56.10;;;;;;4992124;28;20042;-85
2021/06/11 00:04:00;;;;;;;0.45;0.10;;;22.70;56.30;;;;;;4971556;28;20046;-84
2021/06/11 00:06:26;;;;;;;0.35;0.10;;;22.70;56.40;;;;;;4972574;28;20030;-84
2021/06/11 00:08:52;;;;;;;0.17;0.00;;;22.60;56.40;;;;;;4972713;28;20027;-85
2021/06/11 00:11:18;;;;;;;0.20;0.10;;;22.60;56.40;;;;;;4972445;28;20031;-85
2021/06/11 00:13:45;;;;;;;1.58;0.10;;;22.60;56.40;;;;;;4971832;28;20027;-84
2021/06/11 00:16:11;;;;;;;0.80;0.05;;;22.60;56.40;;;;;;4981703;28;20038;-84
2021/06/11 00:18:37;;;;;;;0.15;0.00;;;22.60;56.40;;;;;;4980463;28;20029;-84
2021/06/11 00:21:03;;;;;;;0.95;0.25;;;22.60;56.50;;;;;;4976795;28;20038;-85
2021/06/11 00:23:29;;;;;;;0.38;0.00;;;22.60;56.60;;;;;;4975065;28;20031;-84
2021/06/11 00:25:55;;;;;;;0.32;0.10;;;22.50;56.70;;;;;;4973712;28;20499;-85
2021/06/11 00:28:21;;;;;;;0.17;0.00;;;22.50;56.80;;;;;;4977270;28;20042;-85
2021/06/11 00:30:47;;;;;;;0.10;0.10;;;22.50;56.90;;;;;;4976087;28;20061;-85
2021/06/11 00:33:13;;;;;;;0.65;0.20;;;22.40;56.80;;;;;;4971295;28;20027;-85
2021/06/11 00:35:39;;;;;;;0.30;0.00;;;22.50;56.90;;;;;;4972441;28;20049;-84
2021/06/11 00:38:08;;;;;;;0.70;0.15;;;22.40;57.00;;;;;;4971123;28;20019;-84
2021/06/11 00:40:34;;;;;;;0.22;0.00;;;22.40;57.00;;;;;;4972652;28;20039;-84
2021/06/11 00:43:00;;;;;;;0.82;0.10;;;22.40;57.00;;;;;;4971025;28;20034;-85
2021/06/11 00:45:26;;;;;;;0.28;0.13;;;22.40;57.00;;;;;;4970503;28;186406;-81
2021/06/11 00:47:52;;;;;;;0.30;0.10;;;22.40;57.10;;;;;;4995858;28;20038;-85
2021/06/11 00:50:24;;;;;;;0.55;0.10;;;22.30;57.10;;;;;;4973061;28;20030;-85
2021/06/11 00:52:54;;;;;;;0.73;0.30;;;22.30;57.20;;;;;;4975337;28;20030;-85
2021/06/11 00:55:20;;;;;;;0.25;0.10;;;22.20;57.30;;;;;;4990069;28;20440;-85
2021/06/11 00:57:47;;;;;;;0.80;0.08;;;22.20;57.40;;;;;;5008616;28;20031;-85
2021/06/11 01:00:14;;;;;;;0.93;0.20;;;22.20;57.60;;;;;;4991681;28;20392;-85
2021/06/11 01:02:40;;;;;;;0.50;0.10;;;22.10;57.70;;;;;;4987871;28;20023;-85
2021/06/11 01:05:07;;;;;;;0.08;0.00;;;22.00;57.70;;;;;;4971801;28;20058;-85
2021/06/11 01:07:33;;;;;;;0.45;0.10;;;22.00;57.80;;;;;;4955780;28;20369;-84
2021/06/11 01:09:59;;;;;;;0.52;0.20;;;22.00;58.00;;;;;;4971318;28;20042;-83
2021/06/11 01:12:25;;;;;;;0.28;0.13;;;21.90;58.10;;;;;;4971551;28;20033;-84
2021/06/11 01:14:52;;;;;;;0.32;0.10;;;21.90;58.20;;;;;;4971667;28;20064;-85
2021/06/11 01:17:18;;;;;;;0.98;0.50;;;21.80;58.20;;;;;;4985174;28;20038;-85
2021/06/11 01:19:48;;;;;;;1.70;0.08;;;21.80;58.40;;;;;;4958903;28;20046;-84
2021/06/11 01:22:21;;;;;;;1.02;0.13;;;21.80;58.40;;;;;;5007793;28;20042;-85
2021/06/11 01:25:05;;;;;;;0.57;0.20;;;21.80;58.40;;;;;;4991682;28;20031;-85
2021/06/11 01:27:31;;;;;;;0.10;0.08;;;21.70;58.50;;;;;;4992208;28;20047;-85
2021/06/11 01:30:04;;;;;;;0.45;0.10;;;21.70;58.60;;;;;;5008253;28;20018;-85
2021/06/11 01:32:34;;;;;;;1.25;0.20;;;21.60;58.60;;;;;;4970660;28;20042;-85
2021/06/11 01:35:03;;;;;;;0.03;0.00;;;21.60;58.80;;;;;;4971355;28;20031;-85
2021/06/11 01:37:32;;;;;;;0.47;0.15;;;21.60;58.80;;;;;;4971622;28;20039;-85
2021/06/11 01:40:00;;;;;;;0.25;0.00;;;21.60;58.80;;;;;;4971520;28;20027;-85
2021/06/11 01:42:26;;;;;;;0.10;0.00;;;21.60;58.90;;;;;;4971307;28;20027;-85
2021/06/11 01:44:53;;;;;;;2.70;0.45;;;21.50;59.00;;;;;;4972295;28;20026;-85
2021/06/11 01:47:19;;;;;;;0.63;0.28;;;21.50;59.40;;;;;;4988607;28;20404;-84
2021/06/11 01:49:45;;;;;;;0.65;0.35;;;21.40;59.50;;;;;;4977943;28;20095;-84
2021/06/11 01:52:12;;;;;;;0.50;0.13;;;21.40;59.80;;;;;;4995270;28;20030;-85
2021/06/11 01:54:38;;;;;;;0.22;0.10;;;21.30;59.80;;;;;;4995121;28;20054;-85
2021/06/11 01:57:04;;;;;;;0.30;0.20;;;21.30;60.00;;;;;;4995081;28;20035;-84
2021/06/11 01:59:30;;;;;;;0.17;0.00;;;21.20;60.10;;;;;;4977204;28;20044;-83
2021/06/11 02:01:56;;;;;;;0.10;0.00;;;21.20;60.30;;;;;;4971028;28;20039;-84
2021/06/11 02:04:22;;;;;;;1.23;0.10;;;21.10;60.30;;;;;;4966066;28;20051;-84
2021/06/11 02:06:49;;;;;;;0.20;0.03;;;21.10;60.50;;;;;;4970672;28;20488;-85
2021/06/11 02:09:15;;;;;;;0.60;0.10;;;21.10;60.50;;;;;;4972720;28;20476;-85
2021/06/11 02:11:42;;;;;;;0.38;0.10;;;21.10;60.70;;;;;;4972629;28;20035;-83
2021/06/11 02:14:11;;;;;;;0.65;0.00;;;21.10;60.90;;;;;;4970258;28;20027;-85
2021/06/11 02:16:37;;;;;;;0.10;0.00;;;21.00;61.10;;;;;;4969281;28;20469;-85
2021/06/11 02:19:03;;;;;;;0.15;0.10;;;21.00;61.10;;;;;;4970849;28;20033;-85
2021/06/11 02:21:30;;;;;;;0.60;0.05;;;20.90;61.10;;;;;;4969689;28;20038;-84
2021/06/11 02:23:56;;;;;;;0.82;0.08;;;20.90;61.10;;;;;;4954840;28;20046;-81
2021/06/11 02:26:22;;;;;;;0.00;0.00;;;20.90;61.40;;;;;;4985926;28;20031;-84
2021/06/11 02:28:50;;;;;;;0.10;0.10;;;20.90;61.50;;;;;;4971960;28;20354;-84
2021/06/11 02:31:16;;;;;;;0.43;0.20;;;20.80;61.40;;;;;;4986405;28;20503;-85
2021/06/11 02:33:42;;;;;;;0.22;0.10;;;20.80;61.60;;;;;;4985548;28;20050;-79
2021/06/11 02:36:08;;;;;;;0.28;0.00;;;20.80;61.60;;;;;;4970281;28;20038;-84
2021/06/11 02:38:34;;;;;;;2.28;0.30;;;20.80;61.90;;;;;;4978032;28;20026;-84
2021/06/11 02:41:01;;;;;;;0.85;0.00;;;20.70;61.90;;;;;;4973830;28;20053;-83
2021/06/11 02:43:27;;;;;;;0.10;0.00;;;20.70;62.00;;;;;;4990427;28;20030;-83
2021/06/11 02:46:28;;;;;;;0.45;0.10;;;20.70;62.10;;;;;;4989458;28;20043;-81
2021/06/11 02:49:02;;;;;;;0.10;0.00;;;20.60;62.30;;;;;;4973703;28;20043;-85
2021/06/11 02:51:29;;;;;;;0.22;0.13;;;20.60;62.30;;;;;;4973265;28;20513;-83
2021/06/11 02:53:55;;;;;;;0.55;0.13;;;20.60;62.40;;;;;;4973801;28;20038;-79
2021/06/11 02:56:23;;;;;;;0.17;0.08;;;20.50;62.40;;;;;;4972432;28;20047;-85
2021/06/11 02:58:55;;;;;;;0.35;0.13;;;20.50;62.60;;;;;;4973523;28;20034;-85
2021/06/11 03:01:21;;;;;;;0.10;0.00;;;20.40;62.60;;;;;;4971720;28;20046;-85
2021/06/11 03:03:47;;;;;;;0.30;0.10;;;20.50;62.80;;;;;;4973096;28;20034;-83
2021/06/11 03:06:13;;;;;;;0.60;0.20;;;20.40;62.80;;;;;;4954044;28;20043;-84
2021/06/11 03:08:42;;;;;;;0.10;0.00;;;20.40;62.90;;;;;;4962106;28;20473;-84
2021/06/11 03:11:34;;;;;;;0.28;0.10;;;20.40;63.00;;;;;;4973470;28;20033;-84
2021/06/11 03:14:00;;;;;;;0.20;0.10;;;20.40;63.10;;;;;;5002936;28;20034;-83
2021/06/11 03:16:27;;;;;;;1.48;0.15;;;20.30;63.10;;;;;;4973233;28;20058;-85
2021/06/11 03:18:55;;;;;;;0.20;0.10;;;20.30;63.30;;;;;;4972909;28;20039;-85
2021/06/11 03:21:26;;;;;;;0.95;0.20;;;20.30;63.40;;;;;;4973092;28;20027;-84
2021/06/11 03:24:07;;;;;;;1.75;0.28;;;20.30;63.40;;;;;;4973161;28;20345;-84
2021/06/11 03:26:35;;;;;;;0.98;0.00;;;20.30;63.40;;;;;;4973079;28;20416;-85
2021/06/11 03:29:02;;;;;;;0.13;0.00;;;20.30;63.30;;;;;;4957131;28;20414;-85
2021/06/11 03:31:33;;;;;;;0.20;0.10;;;20.30;63.20;;;;;;4953757;28;20035;-85
2021/06/11 03:34:04;;;;;;;0.00;0.00;;;20.30;63.20;;;;;;4972613;28;20476;-85
2021/06/11 03:36:40;;;;;;;0.80;0.25;;;20.30;63.10;;;;;;4954050;28;20051;-85
2021/06/11 03:39:08;;;;;;;1.85;0.25;;;20.30;63.10;;;;;;4965099;28;20049;-84
2021/06/11 03:41:34;;;;;;;0.88;0.30;;;20.30;63.10;;;;;;4972765;28;20030;-85
2021/06/11 03:44:00;;;;;;;0.30;0.00;;;20.30;63.00;;;;;;4972701;28;20030;-82
2021/06/11 03:46:31;;;;;;;0.50;0.20;;;20.30;63.00;;;;;;4972543;28;20043;-84
2021/06/11 03:48:57;;;;;;;0.38;0.00;;;20.30;63.00;;;;;;4953781;28;20035;-85
2021/06/11 03:51:25;;;;;;;0.20;0.00;;;20.30;63.00;;;;;;4967073;28;20031;-85
2021/06/11 03:53:52;;;;;;;0.70;0.20;;;20.30;63.00;;;;;;4972648;28;20027;-84
2021/06/11 03:56:18;;;;;;;0.43;0.05;;;20.30;63.20;;;;;;4972354;28;20039;-85
2021/06/11 03:58:45;;;;;;;0.77;0.10;;;20.30;63.30;;;;;;4972816;28;20035;-84
2021/06/11 04:01:17;;;;;;;0.57;0.00;;;20.30;63.20;;;;;;4972398;28;20034;-85
2021/06/11 04:03:43;;;;;;;1.02;0.10;;;20.20;63.20;;;;;;4972004;28;20030;-84
2021/06/11 04:06:17;;;;;;;0.95;0.30;;;20.20;63.20;;;;;;4988519;28;20480;-85
2021/06/11 04:08:43;;;;;;;0.00;0.00;;;20.20;63.30;;;;;;4972085;28;20023;-83
2021/06/11 04:11:15;;;;;;;0.20;0.00;;;20.20;63.20;;;;;;4973761;28;20101;-85
2021/06/11 04:13:58;;;;;;;0.20;0.00;;;20.20;63.30;;;;;;4985023;28;20027;-85
2021/06/11 04:16:31;;;;;;;0.10;0.00;;;20.20;63.30;;;;;;4986455;28;20054;-84
2021/06/11 04:18:59;;;;;;;1.23;0.20;;;20.20;63.30;;;;;;4988307;28;20022;-84
2021/06/11 04:21:25;;;;;;;0.17;0.10;;;20.20;63.30;;;;;;4953021;28;20050;-84
2021/06/11 04:23:53;;;;;;;0.98;0.47;;;20.20;63.30;;;;;;4962428;28;20022;-84
2021/06/11 04:26:21;;;;;;;0.08;0.08;;;20.20;63.30;;;;;;4956245;28;20035;-85
2021/06/11 04:28:47;;;;;;;0.57;0.20;;;20.20;63.30;;;;;;4972065;28;20039;-86
2021/06/11 04:31:14;;;;;;;0.25;0.00;;;20.10;63.30;;;;;;4952597;28;20393;-84
2021/06/11 04:33:40;;;;;;;0.00;0.00;;;20.10;63.40;;;;;;4972034;28;20034;-85
2021/06/11 04:36:08;;;;;;;0.10;0.00;;;20.10;63.50;;;;;;4971876;28;20034;-85
2021/06/11 04:39:02;;;;;;;0.08;0.00;;;20.10;63.40;;;;;;4972147;28;20053;-85
2021/06/11 04:41:28;;;;;;;0.63;0.08;;;20.10;63.40;;;;;;4975342;28;20042;-84
2021/06/11 04:43:58;;;;;;;0.08;0.00;;;20.10;63.40;;;;;;4956020;28;20043;-85
2021/06/11 04:46:24;;;;;;;0.20;0.10;;;20.10;63.50;;;;;;4986015;28;20058;-84
2021/06/11 04:48:50;;;;;;;0.17;0.10;;;20.10;63.50;;;;;;4987890;28;20027;-84
2021/06/11 04:51:17;;;;;;;1.08;0.03;;;20.10;63.50;;;;;;4973110;28;20022;-85
2021/06/11 04:53:43;;;;;;;0.32;0.00;;;20.10;63.60;;;;;;4971966;28;20023;-84
2021/06/11 04:56:09;;;;;;;0.20;0.05;;;20.00;63.60;;;;;;4971907;28;20046;-84
2021/06/11 04:58:36;;;;;;;0.10;0.00;;;20.00;63.60;;;;;;4973477;28;20023;-84
2021/06/11 05:01:03;;;;;;;0.30;0.20;;;20.00;63.60;;;;;;4978941;28;20038;-84
2021/06/11 05:03:29;;;;;;;0.20;0.10;;;20.00;63.70;;;;;;4980947;28;20465;-84
2021/06/11 05:05:55;;;;;;;0.45;0.25;;;19.90;63.90;;;;;;4976215;28;20042;-84
2021/06/11 05:08:21;;;;;;;0.73;0.17;;;19.90;64.00;;;;;;4974246;28;20388;-85
2021/06/11 05:10:47;;;;;;;0.00;0.00;;;19.90;64.00;;;;;;4975694;28;20097;-82
2021/06/11 05:13:13;;;;;;;0.28;0.08;;;19.90;63.90;;;;;;4977686;28;20383;-83
2021/06/11 05:15:40;;;;;;;0.30;0.03;;;20.00;63.90;;;;;;4976206;28;20042;-84
2021/06/11 05:18:06;;;;;;;0.57;0.20;;;20.00;63.80;;;;;;4972558;28;20022;-84
2021/06/11 05:20:33;;;;;;;0.20;0.10;;;20.00;63.80;;;;;;4973701;28;20034;-85
2021/06/11 05:22:59;;;;;;;0.22;0.08;;;20.00;64.00;;;;;;4975531;28;20026;-84
2021/06/11 05:25:25;;;;;;;0.10;0.00;;;20.00;64.00;;;;;;4991918;28;20061;-83
2021/06/11 05:27:52;;;;;;;3.40;0.13;;;20.00;64.00;;;;;;4976280;28;20031;-84
2021/06/11 05:30:19;;;;;;;2.80;0.47;;;20.00;64.10;;;;;;4977579;28;20091;-84
2021/06/11 05:32:46;;;;;;;0.20;0.00;;;20.10;64.10;;;;;;4991118;28;20026;-83
2021/06/11 05:35:12;;;;;;;0.43;0.00;;;20.10;64.00;;;;;;4976291;28;20408;-83
2021/06/11 05:37:38;;;;;;;0.35;0.00;;;20.10;63.80;;;;;;4980806;28;20041;-84
2021/06/11 05:40:05;;;;;;;0.15;0.00;;;20.20;63.80;;;;;;4980330;28;20038;-83
2021/06/11 05:42:31;;;;;;;0.43;0.20;;;20.20;63.80;;;;;;4979261;28;20400;-84
2021/06/11 05:44:57;;;;;;;0.10;0.00;;;20.20;63.80;;;;;;4978672;28;20045;-83
2021/06/11 05:47:24;;;;;;;0.43;0.10;;;20.30;63.80;;;;;;4975704;28;20045;-82
2021/06/11 05:49:50;;;;;;;0.40;0.22;;;20.30;63.90;;;;;;4974978;28;20054;-84
2021/06/11 05:52:16;;;;;;;1.27;0.60;;;20.40;63.80;;;;;;4991192;28;20507;-85
2021/06/11 05:54:42;;;;;;;0.28;0.00;;;20.60;63.50;;;;;;4990957;28;20031;-84
2021/06/11 05:57:08;;;;;;;0.25;0.10;;;20.70;63.30;;;;;;4990595;28;20496;-84
2021/06/11 05:59:34;;;;;;;0.20;0.00;;;20.80;63.00;;;;;;4975457;28;20031;-83
2021/06/11 06:02:00;;;;;;;0.52;0.10;;;21.00;62.70;;;;;;4987291;28;20060;-84
2021/06/11 06:04:26;;;;;;;0.75;0.20;;;21.20;62.50;;;;;;4980363;28;20036;-84
2021/06/11 06:06:52;;;;;;;0.15;0.10;;;21.30;62.30;;;;;;4977831;28;20373;-84
2021/06/11 06:09:18;;;;;;;0.20;0.00;;;21.40;62.10;;;;;;4978760;28;20038;-84
2021/06/11 06:11:45;;;;;;;1.02;0.30;;;21.60;62.00;;;;;;4980150;28;20368;-84
2021/06/11 06:14:11;;;;;;;0.30;0.08;;;21.70;61.80;;;;;;4975201;28;20034;-84
2021/06/11 06:16:37;;;;;;;0.30;0.13;;;21.70;61.80;;;;;;5011027;28;20046;-84
2021/06/11 06:19:03;;;;;;;0.70;0.10;;;21.70;61.80;;;;;;4990507;28;20043;-83
2021/06/11 06:21:31;;;;;;;0.32;0.00;;;21.80;61.70;;;;;;4974332;28;20038;-83
2021/06/11 06:23:58;;;;;;;0.32;0.08;;;21.90;61.50;;;;;;4974295;28;20042;-83
2021/06/11 06:26:24;;;;;;;1.17;0.43;;;22.00;61.20;;;;;;4974437;28;20042;-84
2021/06/11 06:28:50;;;;;;;0.60;0.15;;;22.20;60.90;;;;;;4973794;28;20035;-84
2021/06/11 06:31:16;;;;;;;0.30;0.00;;;22.30;60.70;;;;;;4990072;28;20385;-83
2021/06/11 06:33:42;;;;;;;1.48;0.55;;;22.50;60.50;;;;;;4990344;28;20038;-84
2021/06/11 06:36:09;;;;;;;0.93;0.10;;;22.60;60.30;;;;;;4974106;28;20492;-84
2021/06/11 06:38:36;;;;;;;0.52;0.13;;;22.70;60.10;;;;;;4990206;28;20037;-84
2021/06/11 06:41:03;;;;;;;0.65;0.10;;;22.70;60.00;;;;;;4973805;28;20041;-85
2021/06/11 06:43:29;;;;;;;0.38;0.15;;;22.80;60.00;;;;;;4974127;28;20103;-84
2021/06/11 06:45:56;;;;;;;0.70;0.30;;;22.80;60.00;;;;;;4980496;28;20399;-85
2021/06/11 06:48:22;;;;;;;0.28;0.13;;;22.80;60.00;;;;;;4983834;28;20022;-85
2021/06/11 06:50:48;;;;;;;0.25;0.13;;;22.80;60.00;;;;;;4978077;28;20026;-84
2021/06/11 06:53:18;;;;;;;0.10;0.00;;;22.80;60.00;;;;;;4975259;28;20018;-84
2021/06/11 06:55:44;;;;;;;1.35;0.17;;;22.80;60.00;;;;;;4976832;28;20035;-82
2021/06/11 06:58:10;;;;;;;0.15;0.08;;;22.70;60.10;;;;;;5010356;28;20049;-83
2021/06/11 07:00:37;;;;;;;0.68;0.35;;;22.60;60.10;;;;;;5009906;28;20046;-84
2021/06/11 07:03:03;;;;;;;0.40;0.15;;;22.60;60.40;;;;;;4957492;28;20511;-84
2021/06/11 07:05:29;;;;;;;0.43;0.10;;;22.50;61.40;;;;;;4973442;28;20034;-85
2021/06/11 07:07:55;;;;;;;0.20;0.00;;;22.40;60.80;;;;;;4974545;28;20027;-84
2021/06/11 07:10:22;;;;;;;0.82;0.10;;;22.40;60.90;;;;;;4973463;28;20039;-85
2021/06/11 07:12:48;;;;;;;2.17;0.28;;;22.50;60.70;;;;;;4973262;28;20027;-85
2021/06/11 07:15:14;;;;;;;2.20;0.20;;;22.70;60.30;;;;;;4989063;28;20400;-83
2021/06/11 07:17:40;;;;;;;1.27;0.25;;;22.90;59.90;;;;;;4974401;28;20039;-83
2021/06/11 07:20:07;;;;;;;0.52;0.10;;;23.20;59.70;;;;;;4973176;28;20027;-84
2021/06/11 07:22:33;;;;;;;0.40;0.10;;;23.40;59.40;;;;;;4989666;28;20039;-85
2021/06/11 07:25:04;;;;;;;5.90;0.40;;;23.60;59.10;;;;;;4972739;28;20034;-84
2021/06/11 07:27:32;;;;;;;16.65;0.25;;;23.60;58.90;;;;;;4988441;28;20038;-85
2021/06/11 07:30:03;;;;;;;0.85;0.10;;;23.60;58.90;;;;;;4988871;28;20027;-85
2021/06/11 07:32:29;;;;;;;;;;;23.70;58.90;;;;;;4987842;28;20038;-86
2021/06/11 07:34:55;;;;;;;0.40;0.10;;;23.90;58.70;;;;;;5007287;28;20283;-84
2021/06/11 07:37:21;;;;;;;0.70;0.10;;;24.10;58.40;;;;;;5007993;28;20046;-83
2021/06/11 07:39:48;;;;;;;0.22;0.03;;;24.20;58.20;;;;;;5009335;28;20352;-85
2021/06/11 07:42:14;;;;;;;5.13;0.20;;;24.40;58.10;;;;;;4976596;28;20049;-85
2021/06/11 07:44:41;;;;;;;0.30;0.10;;;24.60;57.80;;;;;;4959629;28;20030;-84
2021/06/11 07:47:07;;;;;;;0.28;0.20;;;24.80;57.50;;;;;;4972439;28;20515;-84
2021/06/11 07:49:33;;;;;;;1.17;0.28;;;25.00;57.20;;;;;;4989394;28;20384;-85
2021/06/11 07:51:59;;;;;;;1.38;0.20;;;25.20;57.00;;;;;;4972480;28;20483;-85
2021/06/11 07:54:26;;;;;;;1.08;0.40;;;25.40;56.80;;;;;;4972171;28;20115;-85
2021/06/11 07:56:52;;;;;;;0.80;0.35;;;25.50;56.60;;;;;;4956339;28;20051;-85
2021/06/11 07:59:20;;;;;;;0.30;0.05;;;25.60;56.50;;;;;;4972442;28;20026;-85
2021/06/11 08:01:46;;;;;;;0.43;0.00;;;25.60;56.40;;;;;;4985324;28;20061;-85
2021/06/11 08:04:12;;;;;;;0.28;0.10;;;25.70;56.40;;;;;;4978082;28;20027;-85
2021/06/11 08:06:39;;;;;;;0.50;0.10;;;25.80;56.20;;;;;;4977687;28;20045;-85
2021/06/11 08:09:05;;;;;;;8.07;0.20;;;25.80;56.10;;;;;;4976213;28;20038;-85
2021/06/11 08:11:31;;;;;;;1.33;0.10;;;25.90;56.10;;;;;;4976007;28;21547;-85
2021/06/11 08:13:57;;;;;;;0.95;0.22;;;25.80;56.10;;;;;;4957867;28;20039;-86
2021/06/11 08:16:24;;;;;;;2.25;0.52;;;25.80;56.20;;;;;;4977730;28;20039;-85
2021/06/11 08:18:52;;;;;;;0.50;0.25;;;25.70;56.30;;;;;;4972206;28;20033;-85
2021/06/11 08:21:19;;;;;;;1.10;0.38;;;25.50;56.50;;;;;;4973398;28;20034;-85
2021/06/11 08:23:45;;;;;;;0.90;0.22;;;25.40;56.60;;;;;;4971776;28;20027;-85
2021/06/11 08:26:11;;;;;;;0.57;0.25;;;25.40;56.60;;;;;;4973329;28;20026;-85
2021/06/11 08:28:37;;;;;;;1.65;0.30;;;25.40;56.60;;;;;;4968599;28;20376;-85
2021/06/11 08:31:04;;;;;;;1.40;0.25;;;25.60;56.50;;;;;;4979771;28;20460;-85
2021/06/11 08:33:30;;;;;;;1.17;0.10;;;25.80;56.20;;;;;;4980934;28;20436;-85
2021/06/11 08:35:56;;;;;;;1.08;0.35;;;26.00;55.80;;;;;;4959239;28;20045;-85
2021/06/11 08:38:22;;;;;;;1.33;0.17;;;26.20;55.60;;;;;;4973096;28;20030;-85
2021/06/11 08:40:48;;;;;;;0.45;0.10;;;26.40;55.40;;;;;;4974822;28;20027;-85
2021/06/11 08:43:15;;;;;;;0.68;0.15;;;26.60;55.10;;;;;;4976835;28;20034;-85
2021/06/11 08:45:42;;;;;;;0.47;0.10;;;26.80;54.90;;;;;;4991689;28;20050;-85
2021/06/11 08:48:08;;;;;;;0.55;0.03;;;26.90;54.60;;;;;;4987860;28;20026;-85
2021/06/11 08:50:35;;;;;;;0.30;0.10;;;26.90;54.50;;;;;;4954927;28;20395;-85
2021/06/11 08:53:02;;;;;;;6.70;0.22;;;26.90;54.60;;;;;;4971750;28;20039;-86
2021/06/11 08:55:28;;;;;;;1.58;0.15;;;27.00;54.60;;;;;;4974479;28;20034;-85
2021/06/11 08:57:55;;;;;;;0.50;0.22;;;27.10;54.30;;;;;;4977056;28;20399;-85
2021/06/11 09:00:21;;;;;;;0.75;0.30;;;27.20;54.00;;;;;;4977995;28;20033;-85
2021/06/11 09:03:06;;;;;;;1.75;0.43;;;27.30;53.90;;;;;;4990565;28;20041;-85
2021/06/11 09:05:33;;;;;;;1.45;0.30;;;27.40;53.80;;;;;;4979683;28;20022;-85
2021/06/11 09:08:11;;;;;;;0.40;0.10;;;27.40;53.80;;;;;;4960796;28;20035;-86
2021/06/11 09:10:37;;;;;;;0.57;0.20;;;27.30;54.40;;;;;;4981597;28;20039;-85
2021/06/11 09:13:03;;;;;;;0.80;0.40;;;27.30;53.60;;;;;;4960742;28;20043;-85
2021/06/11 09:15:29;;;;;;;0.43;0.13;;;27.30;53.70;;;;;;4975582;28;20404;-85
2021/06/11 09:17:56;;;;;;;7.82;0.28;;;27.40;53.50;;;;;;4975416;28;20057;-85
2021/06/11 09:20:27;;;;;;;0.15;0.00;;;27.60;53.50;;;;;;4975342;28;20380;-86
2021/06/11 09:22:58;;;;;;;0.30;0.00;;;27.70;53.30;;;;;;4975085;28;20026;-85
2021/06/11 09:25:40;;;;;;;1.60;0.10;;;27.70;53.10;;;;;;4974174;28;20035;-85
2021/06/11 09:28:13;;;;;;;0.20;0.10;;;27.70;53.20;;;;;;4956333;28;20039;-85
2021/06/11 09:30:39;;;;;;;0.90;0.10;;;27.70;53.00;;;;;;4987241;28;20031;-86
2021/06/11 09:33:07;;;;;;;0.82;0.35;;;27.90;53.00;;;;;;4976198;28;20037;-85
2021/06/11 09:35:36;;;;;;;0.05;0.00;;;28.10;52.60;;;;;;4974765;28;20379;-85
2021/06/11 09:38:11;;;;;;;1.33;0.10;;;28.30;52.40;;;;;;4976141;28;20038;-86
2021/06/11 09:40:37;;;;;;;0.90;0.10;;;28.30;52.30;;;;;;4975717;28;20061;-86
2021/06/11 09:43:04;;;;;;;0.40;0.08;;;28.40;52.20;;;;;;4974842;28;20046;-85
2021/06/11 09:45:30;;;;;;;1.75;0.35;;;28.60;52.10;;;;;;4977890;28;20057;-86
2021/06/11 09:47:56;;;;;;;0.60;0.10;;;28.70;51.90;;;;;;4972434;28;20065;-86
2021/06/11 09:50:37;;;;;;;0.95;0.20;;;28.70;51.80;;;;;;4977329;28;20361;-86
2021/06/11 09:53:04;;;;;;;;;;;28.80;51.80;;;;;;4977275;28;20037;-85
2021/06/11 09:55:31;;;;;;;0.55;0.22;;;28.90;51.60;;;;;;4979654;28;19914;-87
2021/06/11 09:58:21;;;;;;;0.30;0.10;;;29.00;51.40;;;;;;4979993;28;20046;-86
2021/06/11 10:00:55;;;;;;;0.70;0.20;;;29.00;51.50;;;;;;4973452;28;20051;-86
2021/06/11 10:03:22;;;;;;;0.73;0.20;;;29.10;51.30;;;;;;4955959;28;20484;-86
2021/06/11 10:05:48;;;;;;;1.95;0.20;;;29.20;51.10;;;;;;4973799;28;20035;-86
2021/06/11 10:08:15;;;;;;;0.40;0.10;;;29.30;51.00;;;;;;4974475;28;20384;-86
2021/06/11 10:10:42;;;;;;;0.55;0.10;;;29.30;50.90;;;;;;4959056;28;20515;-86
2021/06/11 10:13:09;;;;;;;0.30;0.10;;;29.50;50.70;;;;;;4990574;28;20042;-86
2021/06/11 10:15:35;;;;;;;1.15;0.20;;;29.50;50.50;;;;;;4978540;28;20042;-86
2021/06/11 10:18:02;;;;;;;0.30;0.13;;;29.50;50.60;;;;;;4987175;28;20506;-85
2021/06/11 10:20:29;;;;;;;0.45;0.13;;;29.50;50.20;;;;;;4976321;28;20027;-86
2021/06/11 10:22:55;;;;;;;1.83;0.15;;;29.40;50.30;;;;;;4976163;28;20031;-86
2021/06/11 10:25:21;;;;;;;0.68;0.20;;;29.50;50.40;;;;;;5009634;28;20035;-85
2021/06/11 10:27:47;;;;;;;1.40;0.40;;;29.60;50.20;;;;;;4994480;28;20053;-86
2021/06/11 10:30:14;;;;;;;0.30;0.10;;;29.60;49.80;;;;;;4977995;28;20042;-86
2021/06/11 10:32:44;;;;;;;0.57;0.20;;;29.60;49.80;;;;;;4974229;28;20034;-85
2021/06/11 10:35:11;;;;;;;0.08;0.00;;;29.80;49.70;;;;;;4973860;28;20034;-85
2021/06/11 10:37:42;;;;;;;0.52;0.22;;;29.90;49.50;;;;;;4984421;28;20042;-85
2021/06/11 10:40:14;;;;;;;0.00;0.00;;;29.90;49.20;;;;;;4999658;28;20010;-85
2021/06/11 10:42:41;;;;;;;0.77;0.20;;;29.90;49.10;;;;;;4991252;28;20045;-85
2021/06/11 10:45:07;;;;;;;0.20;0.00;;;29.90;49.70;;;;;;4973862;28;20050;-84
2021/06/11 10:47:34;;;;;;;0.20;0.10;;;29.90;49.00;;;;;;4989040;28;20371;-85
2021/06/11 10:50:01;;;;;;;0.85;0.30;;;29.90;48.90;;;;;;4974895;28;20027;-86
2021/06/11 10:52:41;;;;;;;0.40;0.15;;;29.90;48.70;;;;;;4979631;28;20054;-85
2021/06/11 10:55:13;;;;;;;0.17;0.08;;;30.00;48.60;;;;;;4978288;28;20031;-86
2021/06/11 10:57:46;;;;;;;1.08;0.35;;;30.10;48.30;;;;;;4980254;28;20045;-85
2021/06/11 11:00:32;;;;;;;3.22;0.63;;;30.10;48.10;;;;;;4982384;28;20027;-85
2021/06/11 11:03:02;;;;;;;0.77;0.20;;;30.20;48.10;;;;;;4957615;28;20479;-85
2021/06/11 11:05:29;;;;;;;0.47;0.17;;;30.10;47.70;;;;;;4973522;28;20390;-85
2021/06/11 11:07:55;;;;;;;0.30;0.00;;;30.20;47.90;;;;;;4974721;28;20046;-85
2021/06/11 11:10:43;;;;;;;2.08;0.25;;;30.20;47.70;;;;;;4987874;28;20049;-85
2021/06/11 11:13:11;;;;;;;0.17;0.10;;;30.30;47.60;;;;;;4974376;28;20057;-85
2021/06/11 11:15:44;;;;;;;0.10;0.00;;;30.40;47.40;;;;;;4977552;28;20057;-85
2021/06/11 11:18:24;;;;;;;0.52;0.20;;;30.50;47.40;;;;;;4983590;28;20042;-85
2021/06/11 11:20:51;;;;;;;0.63;0.20;;;30.70;47.40;;;;;;4962379;28;20038;-85
2021/06/11 11:23:19;;;;;;;0.75;0.10;;;30.70;47.00;;;;;;4957313;28;20298;-85
2021/06/11 11:25:46;;;;;;;0.30;0.10;;;30.70;46.90;;;;;;4976415;28;20031;-84
2021/06/11 11:28:13;;;;;;;0.85;0.40;;;30.60;46.80;;;;;;5009929;28;20031;-85
2021/06/11 11:30:39;;;;;;;0.47;0.20;;;30.50;46.90;;;;;;5008900;28;20038;-85
2021/06/11 11:33:06;;;;;;;0.63;0.30;;;30.60;47.00;;;;;;4956678;28;20043;-85
2021/06/11 11:35:33;;;;;;;1.05;0.10;;;30.80;46.70;;;;;;4972829;28;20026;-85
2021/06/11 11:38:01;;;;;;;0.40;0.10;;;30.90;46.50;;;;;;4973959;28;20038;-85
2021/06/11 11:40:27;;;;;;;1.20;0.40;;;30.70;46.50;;;;;;4989471;28;20030;-85
2021/06/11 11:42:54;;;;;;;0.95;0.28;;;30.50;46.80;;;;;;4989019;28;20365;-85
2021/06/11 11:45:25;;;;;;;0.80;0.30;;;30.30;47.20;;;;;;4988171;28;20107;-85
2021/06/11 11:47:55;;;;;;;1.13;0.45;;;30.20;47.50;;;;;;4973379;28;20527;-85
2021/06/11 11:50:21;;;;;;;0.73;0.30;;;30.30;47.40;;;;;;4972663;28;20388;-85
2021/06/11 11:52:47;;;;;;;0.20;0.10;;;30.40;47.10;;;;;;4972924;28;20035;-85
2021/06/11 11:55:14;;;;;;;0.63;0.20;;;30.40;47.00;;;;;;4973060;28;20476;-85
2021/06/11 11:57:43;;;;;;;0.25;0.00;;;30.40;47.10;;;;;;4988488;28;20061;-85
2021/06/11 12:00:10;;;;;;;0.60;0.10;;;30.20;47.10;;;;;;4973001;28;20396;-85
2021/06/11 12:02:36;;;;;;;0.63;0.20;;;30.10;47.30;;;;;;4987742;28;20041;-85
2021/06/11 12:05:04;;;;;;;0.32;0.05;;;30.00;47.30;;;;;;4973497;28;20515;-85
2021/06/11 12:07:30;;;;;;;0.25;0.10;;;29.90;47.30;;;;;;5009509;28;20037;-85
2021/06/11 12:09:56;;;;;;;0.80;0.30;;;29.80;47.40;;;;;;5009227;28;20031;-85
2021/06/11 12:12:22;;;;;;;1.13;0.25;;;29.70;47.50;;;;;;4976647;28;20046;-84
2021/06/11 12:14:48;;;;;;;2.97;0.13;;;29.70;47.50;;;;;;4975231;28;20050;-86
2021/06/11 12:17:14;;;;;;;0.17;0.00;;;29.80;47.50;;;;;;4951650;28;20043;-85
2021/06/11 12:19:40;;;;;;;0.30;0.13;;;29.90;47.10;;;;;;4954603;29;20023;-85
2021/06/11 12:22:07;;;;;;;0.60;0.35;;;30.20;46.80;;;;;;4952850;28;20047;-85
2021/06/11 12:24:33;;;;;;;0.65;0.40;;;30.30;46.70;;;;;;4952816;29;20031;-85
2021/06/11 12:26:59;;;;;;;0.50;0.20;;;30.50;46.20;;;;;;4952674;28;20035;-85
2021/06/11 12:29:25;;;;;;;0.38;0.10;;;30.70;46.10;;;;;;4952522;28;20031;-84
2021/06/11 12:31:51;;;;;;;0.40;0.20;;;30.80;46.00;;;;;;4980162;28;20038;-85
2021/06/11 12:34:18;;;;;;;0.32;0.00;;;30.90;46.00;;;;;;5009117;28;20023;-85
2021/06/11 12:36:44;;;;;;;0.32;0.20;;;30.90;45.90;;;;;;4992259;28;20475;-85
2021/06/11 12:39:11;;;;;;;0.28;0.10;;;30.90;45.90;;;;;;5008998;28;20389;-85
2021/06/11 12:41:38;;;;;;;0.35;0.10;;;30.70;46.00;;;;;;4991421;28;20026;-85
2021/06/11 12:44:15;;;;;;;0.40;0.10;;;30.50;46.20;;;;;;4973343;28;20038;-84
2021/06/11 12:46:42;;;;;;;11.55;0.20;;;30.40;46.30;;;;;;5013792;28;20495;-85
2021/06/11 12:49:08;;;;;;;0.28;0.08;;;30.40;46.40;;;;;;4992502;28;20038;-85
2021/06/11 12:51:34;;;;;;;0.38;0.10;;;30.40;46.40;;;;;;4992283;28;20023;-85